createdAt,value
2018-03-22T16:54:33.779Z,17.1
2018-03-22T16:55:36.479Z,17.1
2018-03-22T16:56:39.172Z,17.2
2018-03-22T16:57:42.148Z,17.1
2018-03-22T16:58:44.936Z,16.9
2018-03-22T16:59:47.635Z,17
2018-03-22T17:00:50.340Z,17
2018-03-22T17:01:53.202Z,17
2018-03-22T17:02:57.072Z,17.1
2018-03-22T17:04:00.205Z,17.1
2018-03-22T17:05:02.982Z,17.1
2018-03-22T17:06:05.877Z,17.1
2018-03-22T17:07:08.748Z,17.1
2018-03-22T17:08:11.496Z,17.1
2018-03-22T17:09:14.419Z,17
2018-03-22T17:10:17.348Z,16.9
2018-03-22T17:11:22.839Z,17.1
2018-03-22T17:12:25.631Z,17
2018-03-22T17:13:28.483Z,17
2018-03-22T17:14:32.062Z,17.1
2018-03-22T17:15:34.978Z,17
2018-03-22T17:16:38.592Z,17
2018-03-22T17:17:41.410Z,17
2018-03-22T17:18:44.357Z,17
2018-03-22T17:19:49.211Z,17
2018-03-22T17:20:52.447Z,16.9
2018-03-22T17:21:55.107Z,17
2018-03-22T17:22:57.823Z,17
2018-03-22T17:24:00.468Z,17.1
2018-03-22T17:25:03.950Z,17.1
2018-03-22T17:26:06.601Z,17
2018-03-22T17:27:09.402Z,16.9
2018-03-22T17:28:11.998Z,16.9
2018-03-22T17:29:14.812Z,17.1
2018-03-22T17:30:17.519Z,17.1
2018-03-22T17:31:20.472Z,17
2018-03-22T17:32:23.729Z,17
2018-03-22T17:33:26.466Z,17
2018-03-22T17:34:29.202Z,17
2018-03-22T17:35:31.726Z,17
2018-03-22T17:36:34.414Z,17
2018-03-22T17:37:37.007Z,17
2018-03-22T17:38:40.324Z,17
2018-03-22T17:39:43.321Z,17
2018-03-22T17:40:46.226Z,17
2018-03-22T17:41:51.809Z,17
2018-03-22T17:42:55.474Z,17
2018-03-22T17:43:58.352Z,17
2018-03-22T17:45:01.030Z,16.9
2018-03-22T17:46:03.794Z,16.9
2018-03-22T17:47:06.452Z,16.9
2018-03-22T17:48:09.024Z,17
2018-03-22T17:49:11.694Z,17
2018-03-22T17:50:14.380Z,17
2018-03-22T17:51:17.023Z,17
2018-03-22T17:53:34.069Z,17.1
2018-03-22T17:54:36.943Z,17.1
2018-03-22T17:55:39.704Z,17
2018-03-22T17:56:42.498Z,16.9
2018-03-22T17:57:53.386Z,17
2018-03-22T17:58:56.041Z,17
2018-03-22T17:59:58.994Z,17
2018-03-22T18:01:01.703Z,17
2018-03-22T18:02:04.843Z,17
2018-03-22T18:03:07.590Z,17
2018-03-22T18:04:10.165Z,17
2018-03-22T18:05:12.894Z,16.9
2018-03-22T18:06:15.888Z,17
2018-03-22T18:07:18.617Z,17.1
2018-03-22T18:08:22.257Z,17
2018-03-22T18:09:25.245Z,17
2018-03-22T18:10:27.938Z,17
2018-03-22T18:11:30.664Z,17.1
2018-03-22T18:12:33.751Z,17.2
2018-03-22T18:13:36.405Z,17.2
2018-03-22T18:14:39.016Z,17.4
2018-03-22T18:15:41.592Z,17.5
2018-03-22T18:16:44.328Z,17.5
2018-03-22T18:17:47.718Z,17.5
2018-03-22T18:18:50.270Z,17.6
2018-03-22T18:19:53.119Z,17.6
2018-03-22T18:20:55.750Z,17.7
2018-03-22T18:21:58.415Z,17.8
2018-03-22T18:23:01.030Z,17.9
2018-03-22T18:24:07.975Z,18
2018-03-22T18:25:10.698Z,18.1
2018-03-22T18:26:13.334Z,18.1
2018-03-22T18:27:15.919Z,18.2
2018-03-22T18:28:18.476Z,18.1
2018-03-22T18:29:21.183Z,18.2
2018-03-22T18:30:23.895Z,18.1
2018-03-22T18:31:26.470Z,18.3
2018-03-22T18:32:30.696Z,18.4
2018-03-22T18:33:33.602Z,18.5
2018-03-22T18:34:36.168Z,18.5
2018-03-22T18:35:38.799Z,18.5
2018-03-22T18:36:41.398Z,18.6
2018-03-22T18:37:44.099Z,18.5
2018-03-22T18:38:46.637Z,18.6
2018-03-22T18:39:49.226Z,18.5
2018-03-22T18:40:51.876Z,18.6
2018-03-22T18:41:54.692Z,18.6
2018-03-22T18:42:57.427Z,18.7
2018-03-22T18:44:00.045Z,18.8
2018-03-22T18:45:02.783Z,18.9
2018-03-22T18:46:05.444Z,18.9
2018-03-22T18:47:08.116Z,18.9
2018-03-22T18:48:10.742Z,18.9
2018-03-22T18:49:13.899Z,18.9
2018-03-22T18:50:24.996Z,19
2018-03-22T18:51:28.441Z,18.9
2018-03-22T18:52:31.017Z,19
2018-03-22T18:53:33.735Z,19
2018-03-22T18:54:36.361Z,19
2018-03-22T18:55:38.994Z,19
2018-03-22T18:56:41.798Z,19
2018-03-22T18:57:44.645Z,19.1
2018-03-22T18:58:47.348Z,19.1
2018-03-22T18:59:50.078Z,19.1
2018-03-22T19:00:52.921Z,19
2018-03-22T19:01:55.759Z,19
2018-03-22T19:02:58.447Z,19
2018-03-22T19:04:01.262Z,19
2018-03-22T19:05:04.053Z,18.9
2018-03-22T19:06:06.660Z,19
2018-03-22T19:07:09.291Z,19
2018-03-22T19:08:11.996Z,18.9
2018-03-22T19:09:14.707Z,18.9
2018-03-22T19:10:17.573Z,18.9
2018-03-22T19:11:20.366Z,18.7
2018-03-22T19:12:23.371Z,18.8
2018-03-22T19:13:26.109Z,18.7
2018-03-22T19:14:28.812Z,18.7
2018-03-22T19:15:38.337Z,18.6
2018-03-22T19:16:41.000Z,18.6
2018-03-22T19:17:43.824Z,18.6
2018-03-22T19:18:46.469Z,18.5
2018-03-22T19:19:49.282Z,18.4
2018-03-22T19:20:51.802Z,18.4
2018-03-22T19:22:01.186Z,18.4
2018-03-22T19:23:03.993Z,18.3
2018-03-22T19:24:06.728Z,18.2
2018-03-22T19:25:09.423Z,18.3
2018-03-22T19:26:11.980Z,18.2
2018-03-22T19:27:14.752Z,18.2
2018-03-22T19:28:17.462Z,18.1
2018-03-22T19:29:20.044Z,18.1
2018-03-22T19:30:22.739Z,18.1
2018-03-22T19:31:25.534Z,18
2018-03-22T19:32:28.228Z,18
2018-03-22T19:33:30.886Z,18
2018-03-22T19:34:33.678Z,17.9
2018-03-22T19:35:36.326Z,17.8
2018-03-22T19:36:38.951Z,17.9
2018-03-22T19:37:41.498Z,17.9
2018-03-22T19:38:44.173Z,17.9
2018-03-22T19:39:46.807Z,17.8
2018-03-22T19:40:49.504Z,17.9
2018-03-22T19:41:52.103Z,17.9
2018-03-22T19:42:55.659Z,17.9
2018-03-22T19:43:59.369Z,17.9
2018-03-22T19:45:02.056Z,17.9
2018-03-22T19:46:04.908Z,17.9
2018-03-22T19:47:07.499Z,17.9
2018-03-22T19:48:11.085Z,17.9
2018-03-22T19:49:14.632Z,17.9
2018-03-22T19:50:17.218Z,17.9
2018-03-22T19:51:19.844Z,17.9
2018-03-22T19:52:22.397Z,17.8
2018-03-22T19:53:25.158Z,17.8
2018-03-22T19:54:27.791Z,17.8
2018-03-22T19:55:30.435Z,17.7
2018-03-22T19:56:33.122Z,17.8
2018-03-22T19:57:35.916Z,17.8
2018-03-22T19:58:38.914Z,17.8
2018-03-22T19:59:41.612Z,17.7
2018-03-22T20:00:44.327Z,17.8
2018-03-22T20:01:46.963Z,17.8
2018-03-22T20:02:49.756Z,17.8
2018-03-22T20:03:52.363Z,17.8
2018-03-22T20:04:55.111Z,17.7
2018-03-22T20:05:57.719Z,17.8
2018-03-22T20:07:00.468Z,17.7
2018-03-22T20:08:02.996Z,17.7
2018-03-22T20:09:06.048Z,17.7
2018-03-22T20:10:08.647Z,17.7
2018-03-22T20:11:11.297Z,17.7
2018-03-22T20:12:14.060Z,17.7
2018-03-22T20:13:16.718Z,17.7
2018-03-22T20:14:19.523Z,17.7
2018-03-22T20:15:22.308Z,17.6
2018-03-22T20:16:27.047Z,17.6
2018-03-22T20:17:29.752Z,17.7
2018-03-22T20:18:32.331Z,17.7
2018-03-22T20:19:35.240Z,17.7
2018-03-22T20:20:37.860Z,17.7
2018-03-22T20:21:40.439Z,17.6
2018-03-22T20:22:43.002Z,17.6
2018-03-22T20:23:45.706Z,17.6
2018-03-22T20:24:48.312Z,17.5
2018-03-22T20:25:50.862Z,17.6
2018-03-22T20:26:53.437Z,17.5
2018-03-22T20:27:56.127Z,17.5
2018-03-22T20:28:58.699Z,17.6
2018-03-22T20:30:01.470Z,17.7
2018-03-22T20:31:04.269Z,17.7
2018-03-22T20:32:06.778Z,17.9
2018-03-22T20:33:09.485Z,17.9
2018-03-22T20:34:12.079Z,18
2018-03-22T20:35:14.962Z,18.1
2018-03-22T20:36:17.588Z,18.1
2018-03-22T20:37:20.205Z,18.2
2018-03-22T20:38:22.973Z,18.3
2018-03-22T20:39:25.621Z,18.3
2018-03-22T20:40:28.181Z,18.5
2018-03-22T20:41:30.830Z,18.5
2018-03-22T20:42:33.403Z,18.7
2018-03-22T20:43:36.054Z,18.7
2018-03-22T20:44:38.599Z,18.8
2018-03-22T20:45:41.135Z,18.8
2018-03-22T20:46:43.725Z,18.8
2018-03-22T20:47:46.461Z,18.9
2018-03-22T20:48:49.072Z,18.8
2018-03-22T20:49:51.691Z,19
2018-03-22T20:50:54.523Z,18.9
2018-03-22T20:51:57.165Z,19.1
2018-03-22T20:52:59.763Z,19.2
2018-03-22T20:54:02.393Z,19.2
2018-03-22T20:55:04.935Z,19.1
2018-03-22T20:56:07.483Z,19.2
2018-03-22T20:57:10.084Z,19.2
2018-03-22T20:58:12.654Z,19.2
2018-03-22T20:59:15.444Z,19.2
2018-03-22T21:00:18.070Z,19.2
2018-03-22T21:01:20.718Z,19.2
2018-03-22T21:02:23.319Z,19.1
2018-03-22T21:03:25.997Z,19.1
2018-03-22T21:04:28.610Z,19.1
2018-03-22T21:05:31.177Z,19.1
2018-03-22T21:06:33.760Z,18.9
2018-03-22T21:07:36.379Z,19
2018-03-22T21:08:38.895Z,19
2018-03-22T21:09:41.553Z,19
2018-03-22T21:10:44.137Z,19
2018-03-22T21:11:46.704Z,19
2018-03-22T21:12:49.311Z,19
2018-03-22T21:13:51.992Z,18.9
2018-03-22T21:14:54.640Z,19
2018-03-22T21:15:57.195Z,19
2018-03-22T21:18:08.325Z,18.9
2018-03-22T21:19:10.829Z,18.8
2018-03-22T21:20:13.673Z,18.8
2018-03-22T21:21:16.261Z,18.8
2018-03-22T21:22:18.872Z,18.8
2018-03-22T21:23:21.418Z,18.7
2018-03-22T21:24:23.940Z,18.6
2018-03-22T21:25:26.611Z,18.6
2018-03-22T21:26:29.124Z,18.6
2018-03-22T21:27:31.670Z,18.6
2018-03-22T21:28:34.247Z,18.5
2018-03-22T21:29:36.752Z,18.4
2018-03-22T21:30:39.270Z,18.5
2018-03-22T21:31:41.742Z,18.4
2018-03-22T21:32:44.383Z,18.3
2018-03-22T21:33:50.038Z,18.3
2018-03-22T21:34:59.996Z,18.3
2018-03-22T21:36:02.510Z,18.1
2018-03-22T21:37:05.068Z,18.1
2018-03-22T21:38:07.636Z,18.1
2018-03-22T21:39:10.120Z,18
2018-03-22T21:40:12.520Z,18
2018-03-22T21:41:14.998Z,18
2018-03-22T21:42:17.467Z,18
2018-03-22T21:43:19.948Z,18
2018-03-22T21:44:22.395Z,17.9
2018-03-22T21:45:24.964Z,17.8
2018-03-22T21:46:27.437Z,17.7
2018-03-22T21:47:30.008Z,17.8
2018-03-22T21:48:32.485Z,17.9
2018-03-22T21:49:34.997Z,17.9
2018-03-22T21:50:37.419Z,17.9
2018-03-22T21:51:39.906Z,17.9
2018-03-22T21:52:42.384Z,17.8
2018-03-22T21:53:45.045Z,17.9
2018-03-22T21:54:47.745Z,17.9
2018-03-22T21:55:50.185Z,17.9
2018-03-22T21:56:52.661Z,17.7
2018-03-22T21:57:55.138Z,17.8
2018-03-22T21:58:57.642Z,17.8
2018-03-22T22:00:03.243Z,17.8
2018-03-22T22:01:05.750Z,17.8
2018-03-22T22:02:08.480Z,17.9
2018-03-22T22:03:11.116Z,17.9
2018-03-22T22:04:13.616Z,17.9
2018-03-22T22:05:16.102Z,17.8
2018-03-22T22:06:18.622Z,17.7
2018-03-22T22:07:21.174Z,17.7
2018-03-22T22:08:23.737Z,17.7
2018-03-22T22:09:26.580Z,17.7
2018-03-22T22:10:29.239Z,17.7
2018-03-22T22:11:31.730Z,17.7
2018-03-22T22:12:34.266Z,17.7
2018-03-22T22:13:36.755Z,17.7
2018-03-22T22:14:39.230Z,17.7
2018-03-22T22:15:41.834Z,17.7
2018-03-22T22:16:44.329Z,17.7
2018-03-22T22:17:46.880Z,17.7
2018-03-22T22:18:49.762Z,17.6
2018-03-22T22:19:52.231Z,17.7
2018-03-22T22:20:54.839Z,17.6
2018-03-22T22:21:57.411Z,17.6
2018-03-22T22:23:00.063Z,17.6
2018-03-22T22:24:02.794Z,17.6
2018-03-22T22:25:05.264Z,17.5
2018-03-22T22:26:08.074Z,17.5
2018-03-22T22:27:11.521Z,17.3
2018-03-22T22:28:14.018Z,17.5
2018-03-22T22:29:16.511Z,17.5
2018-03-22T22:30:19.101Z,17.5
2018-03-22T22:31:21.504Z,17.5
2018-03-22T22:32:23.903Z,17.5
2018-03-22T22:33:26.401Z,17.4
2018-03-22T22:34:28.889Z,17.4
2018-03-22T22:35:31.359Z,17.4
2018-03-22T22:36:33.794Z,17.5
2018-03-22T22:37:36.406Z,17.4
2018-03-22T22:38:38.857Z,17.4
2018-03-22T22:39:41.325Z,17.4
2018-03-22T22:40:43.896Z,17.4
2018-03-22T22:41:46.342Z,17.4
2018-03-22T22:42:49.039Z,17.3
2018-03-22T22:43:51.423Z,17.3
2018-03-22T22:44:53.978Z,17.3
2018-03-22T22:45:56.644Z,17.3
2018-03-22T22:46:59.117Z,17.2
2018-03-22T22:48:01.553Z,17.3
2018-03-22T22:49:04.265Z,17.2
2018-03-22T22:50:06.784Z,17.2
2018-03-22T22:51:09.252Z,17.2
2018-03-22T22:52:11.662Z,17.2
2018-03-22T22:53:14.113Z,17.2
2018-03-22T22:54:16.612Z,17.1
2018-03-22T22:55:19.114Z,17.1
2018-03-22T22:56:21.586Z,16.9
2018-03-22T22:57:24.057Z,17.1
2018-03-22T22:58:26.599Z,17.1
2018-03-22T22:59:29.046Z,17.1
2018-03-22T23:00:31.529Z,17.1
2018-03-22T23:01:34.061Z,17.1
2018-03-22T23:02:36.582Z,17.1
2018-03-22T23:03:39.018Z,17.1
2018-03-22T23:04:41.462Z,17.1
2018-03-22T23:05:43.937Z,17
2018-03-22T23:06:46.524Z,17
2018-03-22T23:07:49.065Z,17
2018-03-22T23:08:51.561Z,17
2018-03-22T23:09:54.024Z,16.9
2018-03-22T23:10:56.495Z,17
2018-03-22T23:11:59.134Z,17
2018-03-22T23:13:01.780Z,16.9
2018-03-22T23:14:04.778Z,16.9
2018-03-22T23:15:07.421Z,16.9
2018-03-22T23:16:09.899Z,16.9
2018-03-22T23:17:12.482Z,16.9
2018-03-22T23:18:15.045Z,16.8
2018-03-22T23:19:17.510Z,16.9
2018-03-22T23:20:20.142Z,16.9
2018-03-22T23:21:22.727Z,16.9
2018-03-22T23:22:25.303Z,16.9
2018-03-22T23:23:28.150Z,16.9
2018-03-22T23:24:30.689Z,16.9
2018-03-22T23:25:33.271Z,16.8
2018-03-22T23:26:35.753Z,16.8
2018-03-22T23:27:38.325Z,16.8
2018-03-22T23:28:36.006Z,16.1
2018-03-22T23:29:38.676Z,14.2
2018-03-22T23:30:41.353Z,13.4
2018-03-22T23:31:43.856Z,12.9
2018-03-22T23:32:47.274Z,12.6
2018-03-22T23:33:49.799Z,12.3
2018-03-22T23:34:52.366Z,12.2
2018-03-22T23:35:54.978Z,12
2018-03-22T23:36:57.524Z,11.9
2018-03-22T23:38:00.028Z,11.7
2018-03-22T23:39:02.836Z,11.6
2018-03-22T23:40:05.382Z,11.5
2018-03-22T23:41:08.071Z,11.4
2018-03-22T23:42:10.827Z,11.4
2018-03-22T23:43:13.508Z,11.3
2018-03-22T23:44:16.116Z,11.3
2018-03-22T23:45:18.550Z,11.2
2018-03-22T23:46:21.058Z,11.2
2018-03-22T23:47:23.593Z,11
2018-03-22T23:48:26.165Z,10.9
2018-03-22T23:49:28.664Z,10.8
2018-03-22T23:50:31.135Z,10.9
2018-03-22T23:51:33.718Z,10.8
2018-03-22T23:52:36.288Z,10.6
2018-03-22T23:53:38.765Z,10.5
2018-03-22T23:54:41.251Z,10.5
2018-03-22T23:55:43.651Z,10.5
2018-03-22T23:56:46.124Z,10.4
2018-03-22T23:57:48.542Z,10.4
2018-03-22T23:58:51.047Z,10.4
2018-03-22T23:59:53.516Z,10.4
